createdAt,value
2023-10-21T00:01:09.838Z,6.88
2023-10-21T00:06:13.722Z,7.03
2023-10-21T00:11:18.252Z,8.60
2023-10-21T00:16:22.299Z,6.68
2023-10-21T00:21:26.309Z,6.55
2023-10-21T00:26:30.555Z,6.63
2023-10-21T00:31:34.497Z,6.35
2023-10-21T00:36:38.992Z,6.32
2023-10-21T00:41:44.359Z,6.15
2023-10-21T00:46:48.590Z,5.47
2023-10-21T00:51:52.809Z,4.85
2023-10-21T00:56:56.796Z,6.03
2023-10-21T01:02:01.416Z,7.57
2023-10-21T01:07:05.448Z,5.53
2023-10-21T01:12:09.653Z,5.63
2023-10-21T01:17:13.567Z,7.63
2023-10-21T01:22:17.893Z,7.70
2023-10-21T01:27:22.346Z,7.20
2023-10-21T01:32:27.260Z,6.65
2023-10-21T01:37:31.279Z,6.75
2023-10-21T01:42:37.035Z,5.40
2023-10-21T01:47:42.023Z,3.55
2023-10-21T01:52:46.070Z,3.78
2023-10-21T01:57:50.031Z,4.68
2023-10-21T02:02:56.282Z,3.28
2023-10-21T02:08:00.553Z,3.55
2023-10-21T02:13:04.490Z,3.83
2023-10-21T02:18:10.441Z,3.78
2023-10-21T02:23:15.282Z,4.15
2023-10-21T02:28:19.876Z,3.50
2023-10-21T02:33:25.288Z,3.47
2023-10-21T02:38:29.984Z,4.53
2023-10-21T02:43:35.159Z,4.10
2023-10-21T02:48:40.614Z,4.43
2023-10-21T02:53:45.361Z,4.68
2023-10-21T02:58:49.434Z,4.20
2023-10-21T03:03:54.815Z,4.10
2023-10-21T03:08:59.133Z,3.88
2023-10-21T03:14:03.129Z,4.47
2023-10-21T03:19:06.914Z,5.43
2023-10-21T03:24:11.379Z,6.60
2023-10-21T03:29:15.489Z,4.97
2023-10-21T03:34:19.464Z,5.35
2023-10-21T03:39:23.455Z,4.82
2023-10-21T03:44:27.864Z,5.35
2023-10-21T03:49:32.441Z,5.90
2023-10-21T03:54:36.598Z,5.78
2023-10-21T03:59:40.794Z,9.30
2023-10-21T04:04:44.760Z,7.82
2023-10-21T04:09:48.723Z,6.28
2023-10-21T04:14:52.715Z,7.82
2023-10-21T04:19:56.593Z,6.53
2023-10-21T04:25:03.610Z,7.93
2023-10-21T04:30:09.748Z,16.08
2023-10-21T04:35:14.587Z,9.80
2023-10-21T04:40:18.761Z,13.57
2023-10-21T04:45:22.792Z,26.33
2023-10-21T04:50:28.393Z,23.38
2023-10-21T04:55:32.725Z,10.95
2023-10-21T05:00:36.761Z,14.18
2023-10-21T05:05:43.324Z,10.38
2023-10-21T05:10:47.692Z,9.98
2023-10-21T05:15:52.232Z,17.70
2023-10-21T05:20:56.129Z,9.70
2023-10-21T05:26:00.653Z,12.75
2023-10-21T05:31:05.163Z,8.63
2023-10-21T05:36:09.470Z,7.97
2023-10-21T05:41:13.306Z,5.47
2023-10-21T05:46:17.344Z,5.97
2023-10-21T05:51:21.291Z,6.93
2023-10-21T05:56:25.274Z,6.88
2023-10-21T06:01:29.393Z,6.63
2023-10-21T06:06:33.476Z,6.93
2023-10-21T06:11:37.983Z,6.93
2023-10-21T06:16:42.098Z,6.78
2023-10-21T06:21:45.987Z,6.30
2023-10-21T06:26:50.107Z,8.57
2023-10-21T06:31:54.236Z,6.65
2023-10-21T06:36:58.323Z,7.18
2023-10-21T06:42:02.582Z,7.32
2023-10-21T06:47:06.486Z,7.90
2023-10-21T06:52:10.446Z,7.18
2023-10-21T06:57:22.250Z,7.18
2023-10-21T07:02:26.175Z,7.70
2023-10-21T07:07:30.759Z,7.00
2023-10-21T07:12:36.510Z,7.28
2023-10-21T07:17:40.563Z,6.82
2023-10-21T07:22:51.299Z,6.10
2023-10-21T07:27:55.242Z,5.93
2023-10-21T07:32:59.449Z,5.50
2023-10-21T07:38:03.508Z,5.50
2023-10-21T07:43:07.407Z,5.43
2023-10-21T07:48:12.697Z,4.85
2023-10-21T07:53:16.642Z,5.30
2023-10-21T07:58:20.616Z,4.68
2023-10-21T08:03:24.519Z,6.28
2023-10-21T08:08:30.361Z,5.97
2023-10-21T08:13:34.269Z,7.28
2023-10-21T08:18:38.370Z,6.53
2023-10-21T08:23:42.990Z,5.78
2023-10-21T08:28:47.060Z,5.65
2023-10-21T08:33:51.312Z,5.30
2023-10-21T08:38:55.764Z,5.93
2023-10-21T08:43:59.826Z,5.57
2023-10-21T08:49:05.525Z,4.43
2023-10-21T08:54:10.362Z,4.50
2023-10-21T08:59:16.545Z,4.38
2023-10-21T09:04:24.384Z,4.65
2023-10-21T09:09:31.241Z,4.28
2023-10-21T09:14:57.691Z,4.03
2023-10-21T09:20:01.973Z,5.68
2023-10-21T09:25:21.297Z,4.90
2023-10-21T09:30:32.628Z,3.83
2023-10-21T09:35:39.165Z,3.40
2023-10-21T09:40:44.154Z,3.33
2023-10-21T09:45:51.854Z,4.35
2023-10-21T09:51:01.349Z,3.95
2023-10-21T09:56:05.662Z,3.42
2023-10-21T10:01:12.614Z,3.03
2023-10-21T10:06:17.083Z,2.60
2023-10-21T10:11:23.392Z,3.13
2023-10-21T10:16:29.195Z,2.97
2023-10-21T10:21:36.005Z,3.33
2023-10-21T10:26:40.509Z,2.88
2023-10-21T10:31:49.305Z,3.70
2023-10-21T10:36:54.062Z,3.80
2023-10-21T10:42:00.261Z,4.35
2023-10-21T10:47:06.690Z,4.18
2023-10-21T10:52:10.665Z,3.95
2023-10-21T10:57:19.033Z,4.05
2023-10-21T11:02:25.103Z,4.40
2023-10-21T11:07:33.147Z,3.55
2023-10-21T11:12:38.504Z,3.47
2023-10-21T11:17:42.586Z,4.38
2023-10-21T11:22:47.142Z,4.30
2023-10-21T11:27:51.611Z,4.40
2023-10-21T11:32:57.030Z,4.80
2023-10-21T11:38:02.105Z,4.57
2023-10-21T11:43:10.629Z,4.30
2023-10-21T11:48:18.474Z,3.70
2023-10-21T11:53:22.700Z,3.75
2023-10-21T11:58:48.184Z,3.10
2023-10-21T12:04:10.933Z,3.92
2023-10-21T12:09:27.093Z,3.53
2023-10-21T12:14:46.225Z,3.03
2023-10-21T12:20:08.930Z,2.50
2023-10-21T12:25:31.413Z,2.67
2023-10-21T12:31:01.430Z,2.67
2023-10-21T12:36:24.281Z,2.38
2023-10-21T12:41:28.394Z,2.40
2023-10-21T12:46:37.139Z,2.15
2023-10-21T12:51:41.296Z,2.00
2023-10-21T12:56:45.266Z,2.15
2023-10-21T13:01:49.399Z,1.80
2023-10-21T13:06:55.534Z,1.88
2023-10-21T13:11:59.670Z,1.50
2023-10-21T13:17:10.019Z,1.45
2023-10-21T13:22:14.090Z,1.50
2023-10-21T13:27:18.042Z,1.38
2023-10-21T13:32:24.204Z,1.17
2023-10-21T13:37:28.174Z,1.30
2023-10-21T13:42:32.187Z,1.30
2023-10-21T13:47:36.104Z,1.00
2023-10-21T13:52:40.984Z,1.25
2023-10-21T13:57:47.328Z,1.00
2023-10-21T14:02:51.488Z,0.90
2023-10-21T14:07:55.879Z,0.77
2023-10-21T14:13:00.051Z,1.00
2023-10-21T14:18:08.862Z,0.80
2023-10-21T14:23:16.155Z,0.95
2023-10-21T14:28:20.861Z,0.70
2023-10-21T14:34:05.687Z,0.80
2023-10-21T14:39:09.598Z,1.15
2023-10-21T14:44:13.733Z,0.65
2023-10-21T14:49:17.574Z,0.50
2023-10-21T14:54:21.653Z,0.50
2023-10-21T14:59:26.698Z,0.22
2023-10-21T15:04:31.092Z,0.35
2023-10-21T15:09:35.185Z,0.38
2023-10-21T15:14:48.423Z,0.30
2023-10-21T15:19:53.108Z,0.40
2023-10-21T15:24:57.018Z,0.40
2023-10-21T15:30:01.834Z,0.40
2023-10-21T15:35:08.333Z,0.30
2023-10-21T15:40:15.230Z,0.30
2023-10-21T15:45:19.274Z,0.28
2023-10-21T15:50:23.258Z,0.20
2023-10-21T15:55:27.885Z,0.20
2023-10-21T16:00:32.028Z,0.20
2023-10-21T16:05:36.723Z,0.10
2023-10-21T16:10:41.894Z,0.10
2023-10-21T16:15:45.820Z,0.03
2023-10-21T16:20:49.828Z,0.10
2023-10-21T16:25:53.879Z,0.00
2023-10-21T16:30:57.832Z,0.10
2023-10-21T16:36:03.828Z,0.10
2023-10-21T16:41:10.530Z,0.00
2023-10-21T16:46:14.620Z,0.10
2023-10-21T16:51:18.591Z,0.13
2023-10-21T16:56:22.591Z,0.30
2023-10-21T17:01:27.511Z,0.10
2023-10-21T17:06:33.005Z,0.17
2023-10-21T17:11:38.239Z,0.28
2023-10-21T17:16:42.893Z,0.30
2023-10-21T17:21:47.122Z,0.30
2023-10-21T17:26:51.834Z,0.40
2023-10-21T17:31:55.927Z,0.75
2023-10-21T17:37:00.314Z,0.60
2023-10-21T17:42:04.906Z,0.63
2023-10-21T17:47:08.957Z,0.38
2023-10-21T17:52:14.078Z,0.40
2023-10-21T17:57:18.024Z,0.30
2023-10-21T18:02:22.241Z,0.22
2023-10-21T18:07:26.133Z,0.40
2023-10-21T18:12:30.292Z,0.30
2023-10-21T18:17:35.279Z,0.30
2023-10-21T18:22:39.340Z,0.30
2023-10-21T18:27:43.538Z,0.20
2023-10-21T18:32:48.461Z,0.10
2023-10-21T18:37:58.939Z,0.30
2023-10-21T18:43:03.090Z,0.20
2023-10-21T18:48:07.496Z,0.40
2023-10-21T18:53:11.732Z,0.40
2023-10-21T18:58:16.013Z,0.40
2023-10-21T19:03:20.298Z,0.32
2023-10-21T19:08:25.845Z,0.38
2023-10-21T19:13:29.687Z,0.40
2023-10-21T19:18:33.750Z,0.40
2023-10-21T19:23:38.291Z,0.40
2023-10-21T19:28:42.370Z,0.40
2023-10-21T19:33:47.027Z,0.35
2023-10-21T19:38:53.053Z,0.40
2023-10-21T19:44:00.065Z,0.45
2023-10-21T19:49:08.814Z,0.30
2023-10-21T19:54:13.061Z,0.40
2023-10-21T19:59:17.117Z,0.45
2023-10-21T20:04:21.393Z,0.30
2023-10-21T20:09:25.375Z,0.50
2023-10-21T20:14:29.532Z,0.30
2023-10-21T20:19:33.796Z,0.40
2023-10-21T20:24:38.564Z,0.60
2023-10-21T20:29:42.821Z,0.55
2023-10-21T20:34:46.911Z,0.95
2023-10-21T20:39:51.231Z,0.40
2023-10-21T20:44:55.546Z,0.70
2023-10-21T20:49:59.790Z,0.40
2023-10-21T20:55:03.749Z,0.77
2023-10-21T21:00:12.983Z,0.40
2023-10-21T21:05:17.034Z,0.68
2023-10-21T21:10:22.888Z,0.40
2023-10-21T21:15:28.163Z,0.50
2023-10-21T21:20:32.185Z,0.55
2023-10-21T21:25:36.131Z,0.50
2023-10-21T21:30:40.212Z,0.40
2023-10-21T21:36:13.754Z,0.47
2023-10-21T21:41:22.622Z,0.45
2023-10-21T21:46:26.489Z,0.60
2023-10-21T21:51:31.067Z,0.47
2023-10-21T21:56:35.380Z,0.57
2023-10-21T22:01:39.330Z,0.60
2023-10-21T22:06:44.197Z,0.50
2023-10-21T22:11:49.539Z,0.57
2023-10-21T22:16:53.899Z,0.45
2023-10-21T22:21:57.950Z,0.60
2023-10-21T22:27:03.069Z,0.60
2023-10-21T22:32:08.368Z,0.70
2023-10-21T22:37:12.322Z,0.60
2023-10-21T22:42:16.148Z,0.50
2023-10-21T22:47:20.125Z,0.57
2023-10-21T22:52:24.077Z,0.88
2023-10-21T22:57:27.902Z,0.65
2023-10-21T23:02:32.088Z,0.68
2023-10-21T23:07:38.259Z,0.60
2023-10-21T23:12:42.388Z,0.75
2023-10-21T23:17:48.099Z,1.20
2023-10-21T23:22:53.100Z,0.70
2023-10-21T23:27:58.478Z,0.90
2023-10-21T23:33:02.484Z,0.80
2023-10-21T23:38:06.945Z,1.00
2023-10-21T23:43:13.585Z,0.85
2023-10-21T23:48:17.534Z,1.20
2023-10-21T23:53:21.701Z,1.10
2023-10-21T23:58:25.567Z,1.10
